sensor_id;sensor_type;location;lat;lon;timestamp;P1;durP1;ratioP1;P2;durP2;ratioP2
74632;SDS011;63139;52.018;8.552;2023-08-07T00:00:33;4.20;;;2.35;;
74632;SDS011;63139;52.018;8.552;2023-08-07T00:03:02;5.50;;;2.15;;
74632;SDS011;63139;52.018;8.552;2023-08-07T00:05:30;5.95;;;2.42;;
74632;SDS011;63139;52.018;8.552;2023-08-07T00:07:58;7.15;;;2.25;;
74632;SDS011;63139;52.018;8.552;2023-08-07T00:10:27;5.60;;;2.03;;
74632;SDS011;63139;52.018;8.552;2023-08-07T00:12:55;5.05;;;1.80;;
74632;SDS011;63139;52.018;8.552;2023-08-07T00:15:23;6.63;;;2.03;;
74632;SDS011;63139;52.018;8.552;2023-08-07T00:17:51;6.18;;;1.92;;
74632;SDS011;63139;52.018;8.552;2023-08-07T00:20:21;5.50;;;2.40;;
74632;SDS011;63139;52.018;8.552;2023-08-07T00:22:49;9.43;;;2.38;;
74632;SDS011;63139;52.018;8.552;2023-08-07T00:25:17;4.22;;;2.03;;
74632;SDS011;63139;52.018;8.552;2023-08-07T00:27:45;7.07;;;2.17;;
74632;SDS011;63139;52.018;8.552;2023-08-07T00:30:13;5.22;;;1.92;;
74632;SDS011;63139;52.018;8.552;2023-08-07T00:32:41;5.35;;;2.08;;
74632;SDS011;63139;52.018;8.552;2023-08-07T00:35:09;6.68;;;2.42;;
74632;SDS011;63139;52.018;8.552;2023-08-07T00:37:38;4.20;;;2.00;;
74632;SDS011;63139;52.018;8.552;2023-08-07T00:40:07;6.88;;;2.10;;
74632;SDS011;63139;52.018;8.552;2023-08-07T00:42:36;8.77;;;2.35;;
74632;SDS011;63139;52.018;8.552;2023-08-07T00:45:05;4.18;;;2.00;;
74632;SDS011;63139;52.018;8.552;2023-08-07T00:47:33;7.50;;;2.30;;
74632;SDS011;63139;52.018;8.552;2023-08-07T00:50:01;5.43;;;2.00;;
74632;SDS011;63139;52.018;8.552;2023-08-07T00:52:31;3.95;;;1.92;;
74632;SDS011;63139;52.018;8.552;2023-08-07T00:55:01;4.75;;;1.70;;
74632;SDS011;63139;52.018;8.552;2023-08-07T00:57:30;6.32;;;1.98;;
74632;SDS011;63139;52.018;8.552;2023-08-07T00:59:58;2.85;;;1.73;;
74632;SDS011;63139;52.018;8.552;2023-08-07T01:02:28;6.47;;;1.92;;
74632;SDS011;63139;52.018;8.552;2023-08-07T01:04:56;4.95;;;1.60;;
74632;SDS011;63139;52.018;8.552;2023-08-07T01:07:24;9.73;;;2.33;;
74632;SDS011;63139;52.018;8.552;2023-08-07T01:09:52;3.78;;;1.63;;
74632;SDS011;63139;52.018;8.552;2023-08-07T01:12:25;9.20;;;2.50;;
74632;SDS011;63139;52.018;8.552;2023-08-07T01:14:58;8.23;;;2.95;;
74632;SDS011;63139;52.018;8.552;2023-08-07T01:17:34;8.68;;;2.22;;
74632;SDS011;63139;52.018;8.552;2023-08-07T01:20:03;10.52;;;2.58;;
74632;SDS011;63139;52.018;8.552;2023-08-07T01:22:33;6.60;;;2.38;;
74632;SDS011;63139;52.018;8.552;2023-08-07T01:25:01;5.72;;;1.92;;
74632;SDS011;63139;52.018;8.552;2023-08-07T01:27:31;9.30;;;2.20;;
74632;SDS011;63139;52.018;8.552;2023-08-07T01:30:07;8.52;;;2.40;;
74632;SDS011;63139;52.018;8.552;2023-08-07T01:32:54;3.10;;;2.00;;
74632;SDS011;63139;52.018;8.552;2023-08-07T01:35:27;8.73;;;2.50;;
74632;SDS011;63139;52.018;8.552;2023-08-07T01:37:59;5.97;;;2.42;;
74632;SDS011;63139;52.018;8.552;2023-08-07T01:40:28;4.35;;;2.70;;
74632;SDS011;63139;52.018;8.552;2023-08-07T01:42:57;5.45;;;3.00;;
74632;SDS011;63139;52.018;8.552;2023-08-07T01:45:27;7.47;;;3.47;;
74632;SDS011;63139;52.018;8.552;2023-08-07T01:47:56;6.93;;;2.90;;
74632;SDS011;63139;52.018;8.552;2023-08-07T01:50:24;8.60;;;2.67;;
74632;SDS011;63139;52.018;8.552;2023-08-07T01:52:52;7.30;;;3.20;;
74632;SDS011;63139;52.018;8.552;2023-08-07T01:55:23;5.90;;;2.78;;
74632;SDS011;63139;52.018;8.552;2023-08-07T01:57:52;5.80;;;2.60;;
74632;SDS011;63139;52.018;8.552;2023-08-07T02:00:20;8.10;;;2.97;;
74632;SDS011;63139;52.018;8.552;2023-08-07T02:02:48;9.40;;;3.20;;
74632;SDS011;63139;52.018;8.552;2023-08-07T02:05:17;3.45;;;2.40;;
74632;SDS011;63139;52.018;8.552;2023-08-07T02:07:45;7.97;;;3.42;;
74632;SDS011;63139;52.018;8.552;2023-08-07T02:10:13;5.70;;;3.00;;
74632;SDS011;63139;52.018;8.552;2023-08-07T02:12:42;7.35;;;3.30;;
74632;SDS011;63139;52.018;8.552;2023-08-07T02:15:10;7.43;;;3.67;;
74632;SDS011;63139;52.018;8.552;2023-08-07T02:17:38;7.75;;;3.75;;
74632;SDS011;63139;52.018;8.552;2023-08-07T02:20:08;5.95;;;3.33;;
74632;SDS011;63139;52.018;8.552;2023-08-07T02:22:37;4.78;;;2.80;;
74632;SDS011;63139;52.018;8.552;2023-08-07T02:25:06;6.22;;;3.40;;
74632;SDS011;63139;52.018;8.552;2023-08-07T02:27:37;8.55;;;3.53;;
74632;SDS011;63139;52.018;8.552;2023-08-07T02:30:07;8.32;;;3.70;;
74632;SDS011;63139;52.018;8.552;2023-08-07T02:32:35;6.60;;;3.45;;
74632;SDS011;63139;52.018;8.552;2023-08-07T02:35:03;4.45;;;3.00;;
74632;SDS011;63139;52.018;8.552;2023-08-07T02:37:32;5.45;;;3.10;;
74632;SDS011;63139;52.018;8.552;2023-08-07T02:40:00;5.78;;;3.42;;
74632;SDS011;63139;52.018;8.552;2023-08-07T02:42:28;5.30;;;2.92;;
74632;SDS011;63139;52.018;8.552;2023-08-07T02:44:56;9.45;;;3.22;;
74632;SDS011;63139;52.018;8.552;2023-08-07T02:47:25;7.72;;;3.53;;
74632;SDS011;63139;52.018;8.552;2023-08-07T02:49:53;8.15;;;3.45;;
74632;SDS011;63139;52.018;8.552;2023-08-07T02:52:21;7.50;;;3.35;;
74632;SDS011;63139;52.018;8.552;2023-08-07T02:54:49;5.00;;;3.15;;
74632;SDS011;63139;52.018;8.552;2023-08-07T02:57:17;6.43;;;3.38;;
74632;SDS011;63139;52.018;8.552;2023-08-07T02:59:46;9.82;;;3.67;;
74632;SDS011;63139;52.018;8.552;2023-08-07T03:02:14;9.38;;;3.97;;
74632;SDS011;63139;52.018;8.552;2023-08-07T03:04:43;9.25;;;3.80;;
74632;SDS011;63139;52.018;8.552;2023-08-07T03:07:11;7.25;;;3.65;;
74632;SDS011;63139;52.018;8.552;2023-08-07T03:09:39;8.20;;;4.32;;
74632;SDS011;63139;52.018;8.552;2023-08-07T03:12:07;9.32;;;3.65;;
74632;SDS011;63139;52.018;8.552;2023-08-07T03:14:36;8.20;;;3.45;;
74632;SDS011;63139;52.018;8.552;2023-08-07T03:17:04;5.93;;;3.78;;
74632;SDS011;63139;52.018;8.552;2023-08-07T03:19:33;6.63;;;3.20;;
74632;SDS011;63139;52.018;8.552;2023-08-07T03:22:02;6.50;;;3.40;;
74632;SDS011;63139;52.018;8.552;2023-08-07T03:24:31;6.55;;;3.40;;
74632;SDS011;63139;52.018;8.552;2023-08-07T03:26:59;6.57;;;3.80;;
74632;SDS011;63139;52.018;8.552;2023-08-07T03:29:28;5.88;;;3.97;;
74632;SDS011;63139;52.018;8.552;2023-08-07T03:31:56;8.45;;;4.35;;
74632;SDS011;63139;52.018;8.552;2023-08-07T03:34:24;9.93;;;4.95;;
74632;SDS011;63139;52.018;8.552;2023-08-07T03:36:52;8.60;;;4.75;;
74632;SDS011;63139;52.018;8.552;2023-08-07T03:39:23;8.13;;;4.68;;
74632;SDS011;63139;52.018;8.552;2023-08-07T03:41:52;6.57;;;4.57;;
74632;SDS011;63139;52.018;8.552;2023-08-07T03:44:20;10.05;;;5.70;;
74632;SDS011;63139;52.018;8.552;2023-08-07T03:46:48;11.82;;;5.07;;
74632;SDS011;63139;52.018;8.552;2023-08-07T03:49:21;8.30;;;4.32;;
74632;SDS011;63139;52.018;8.552;2023-08-07T03:51:51;9.57;;;5.65;;
74632;SDS011;63139;52.018;8.552;2023-08-07T03:54:19;8.40;;;5.22;;
74632;SDS011;63139;52.018;8.552;2023-08-07T03:56:49;9.35;;;5.00;;
74632;SDS011;63139;52.018;8.552;2023-08-07T03:59:17;10.38;;;5.65;;
74632;SDS011;63139;52.018;8.552;2023-08-07T04:01:45;9.95;;;5.40;;
74632;SDS011;63139;52.018;8.552;2023-08-07T04:04:14;11.77;;;4.80;;
74632;SDS011;63139;52.018;8.552;2023-08-07T04:06:41;9.25;;;6.20;;
74632;SDS011;63139;52.018;8.552;2023-08-07T04:09:10;10.85;;;5.45;;
74632;SDS011;63139;52.018;8.552;2023-08-07T04:11:39;12.18;;;5.25;;
74632;SDS011;63139;52.018;8.552;2023-08-07T04:14:09;8.27;;;5.68;;
74632;SDS011;63139;52.018;8.552;2023-08-07T04:16:37;8.55;;;5.57;;
74632;SDS011;63139;52.018;8.552;2023-08-07T04:19:06;10.05;;;6.15;;
74632;SDS011;63139;52.018;8.552;2023-08-07T04:21:34;5.93;;;4.65;;
74632;SDS011;63139;52.018;8.552;2023-08-07T04:24:03;10.43;;;4.88;;
74632;SDS011;63139;52.018;8.552;2023-08-07T04:26:37;5.75;;;4.60;;
74632;SDS011;63139;52.018;8.552;2023-08-07T04:29:05;8.90;;;5.82;;
74632;SDS011;63139;52.018;8.552;2023-08-07T04:31:35;8.68;;;4.70;;
74632;SDS011;63139;52.018;8.552;2023-08-07T04:34:03;6.82;;;5.30;;
74632;SDS011;63139;52.018;8.552;2023-08-07T04:36:31;7.38;;;4.38;;
74632;SDS011;63139;52.018;8.552;2023-08-07T04:38:59;5.43;;;4.38;;
74632;SDS011;63139;52.018;8.552;2023-08-07T04:41:27;7.57;;;4.32;;
74632;SDS011;63139;52.018;8.552;2023-08-07T04:43:55;5.85;;;4.10;;
74632;SDS011;63139;52.018;8.552;2023-08-07T04:46:23;7.65;;;4.22;;
74632;SDS011;63139;52.018;8.552;2023-08-07T04:48:53;6.15;;;4.90;;
74632;SDS011;63139;52.018;8.552;2023-08-07T04:51:21;7.90;;;4.45;;
74632;SDS011;63139;52.018;8.552;2023-08-07T04:53:49;4.13;;;3.13;;
74632;SDS011;63139;52.018;8.552;2023-08-07T04:56:17;7.40;;;4.22;;
74632;SDS011;63139;52.018;8.552;2023-08-07T04:58:45;10.77;;;4.60;;
74632;SDS011;63139;52.018;8.552;2023-08-07T05:01:13;5.72;;;3.92;;
74632;SDS011;63139;52.018;8.552;2023-08-07T05:03:42;5.65;;;4.03;;
74632;SDS011;63139;52.018;8.552;2023-08-07T05:06:11;3.60;;;3.28;;
74632;SDS011;63139;52.018;8.552;2023-08-07T05:08:39;4.47;;;3.65;;
74632;SDS011;63139;52.018;8.552;2023-08-07T05:11:07;5.15;;;3.50;;
74632;SDS011;63139;52.018;8.552;2023-08-07T05:13:35;5.88;;;3.20;;
74632;SDS011;63139;52.018;8.552;2023-08-07T05:16:03;7.90;;;3.83;;
74632;SDS011;63139;52.018;8.552;2023-08-07T05:18:31;4.20;;;3.67;;
74632;SDS011;63139;52.018;8.552;2023-08-07T05:20:59;3.63;;;3.10;;
74632;SDS011;63139;52.018;8.552;2023-08-07T05:23:28;5.70;;;3.40;;
74632;SDS011;63139;52.018;8.552;2023-08-07T05:25:56;5.63;;;3.20;;
74632;SDS011;63139;52.018;8.552;2023-08-07T05:28:24;4.97;;;3.15;;
74632;SDS011;63139;52.018;8.552;2023-08-07T05:30:52;4.68;;;2.95;;
74632;SDS011;63139;52.018;8.552;2023-08-07T05:33:20;5.00;;;3.17;;
74632;SDS011;63139;52.018;8.552;2023-08-07T05:35:48;4.05;;;2.92;;
74632;SDS011;63139;52.018;8.552;2023-08-07T05:38:19;5.30;;;3.05;;
74632;SDS011;63139;52.018;8.552;2023-08-07T05:40:48;6.28;;;2.90;;
74632;SDS011;63139;52.018;8.552;2023-08-07T05:43:16;3.33;;;2.60;;
74632;SDS011;63139;52.018;8.552;2023-08-07T05:45:44;6.22;;;3.08;;
74632;SDS011;63139;52.018;8.552;2023-08-07T05:48:12;5.68;;;3.00;;
74632;SDS011;63139;52.018;8.552;2023-08-07T05:50:41;4.80;;;2.70;;
74632;SDS011;63139;52.018;8.552;2023-08-07T05:53:09;3.83;;;2.58;;
74632;SDS011;63139;52.018;8.552;2023-08-07T05:55:38;6.53;;;2.58;;
74632;SDS011;63139;52.018;8.552;2023-08-07T05:58:08;4.03;;;2.58;;
74632;SDS011;63139;52.018;8.552;2023-08-07T06:00:36;6.72;;;2.78;;
74632;SDS011;63139;52.018;8.552;2023-08-07T06:03:04;2.65;;;1.92;;
74632;SDS011;63139;52.018;8.552;2023-08-07T06:05:33;6.60;;;2.58;;
74632;SDS011;63139;52.018;8.552;2023-08-07T06:08:01;4.25;;;1.90;;
74632;SDS011;63139;52.018;8.552;2023-08-07T06:10:29;2.88;;;1.65;;
74632;SDS011;63139;52.018;8.552;2023-08-07T06:12:57;5.35;;;1.88;;
74632;SDS011;63139;52.018;8.552;2023-08-07T06:15:27;4.30;;;1.80;;
74632;SDS011;63139;52.018;8.552;2023-08-07T06:17:55;3.88;;;1.77;;
74632;SDS011;63139;52.018;8.552;2023-08-07T06:20:23;2.88;;;1.90;;
74632;SDS011;63139;52.018;8.552;2023-08-07T06:22:51;4.18;;;1.70;;
74632;SDS011;63139;52.018;8.552;2023-08-07T06:25:19;3.25;;;1.50;;
74632;SDS011;63139;52.018;8.552;2023-08-07T06:27:49;3.22;;;1.70;;
74632;SDS011;63139;52.018;8.552;2023-08-07T06:30:18;7.43;;;1.98;;
74632;SDS011;63139;52.018;8.552;2023-08-07T06:32:47;3.33;;;1.35;;
74632;SDS011;63139;52.018;8.552;2023-08-07T06:35:15;3.80;;;1.70;;
74632;SDS011;63139;52.018;8.552;2023-08-07T06:37:43;2.35;;;1.58;;
74632;SDS011;63139;52.018;8.552;2023-08-07T06:40:11;3.97;;;1.70;;
74632;SDS011;63139;52.018;8.552;2023-08-07T06:42:39;3.17;;;1.63;;
74632;SDS011;63139;52.018;8.552;2023-08-07T06:45:08;3.58;;;1.50;;
74632;SDS011;63139;52.018;8.552;2023-08-07T06:47:36;3.55;;;1.40;;
74632;SDS011;63139;52.018;8.552;2023-08-07T06:50:06;3.63;;;1.52;;
74632;SDS011;63139;52.018;8.552;2023-08-07T06:52:34;3.58;;;1.80;;
74632;SDS011;63139;52.018;8.552;2023-08-07T06:55:03;6.70;;;2.15;;
74632;SDS011;63139;52.018;8.552;2023-08-07T06:57:31;4.13;;;1.80;;
74632;SDS011;63139;52.018;8.552;2023-08-07T06:59:59;3.90;;;1.65;;
74632;SDS011;63139;52.018;8.552;2023-08-07T07:02:27;3.13;;;1.40;;
74632;SDS011;63139;52.018;8.552;2023-08-07T07:04:55;3.33;;;1.70;;
74632;SDS011;63139;52.018;8.552;2023-08-07T07:07:25;5.85;;;1.67;;
74632;SDS011;63139;52.018;8.552;2023-08-07T07:09:53;3.22;;;1.52;;
74632;SDS011;63139;52.018;8.552;2023-08-07T07:12:21;2.53;;;1.20;;
74632;SDS011;63139;52.018;8.552;2023-08-07T07:14:49;4.03;;;1.70;;
74632;SDS011;63139;52.018;8.552;2023-08-07T07:17:17;3.50;;;1.55;;
74632;SDS011;63139;52.018;8.552;2023-08-07T07:19:45;4.50;;;1.40;;
74632;SDS011;63139;52.018;8.552;2023-08-07T07:22:13;3.78;;;1.50;;
74632;SDS011;63139;52.018;8.552;2023-08-07T07:24:43;2.33;;;1.52;;
74632;SDS011;63139;52.018;8.552;2023-08-07T07:27:11;1.88;;;1.52;;
74632;SDS011;63139;52.018;8.552;2023-08-07T07:29:38;3.78;;;1.90;;
74632;SDS011;63139;52.018;8.552;2023-08-07T07:32:07;3.97;;;1.40;;
74632;SDS011;63139;52.018;8.552;2023-08-07T07:34:35;2.83;;;1.38;;
74632;SDS011;63139;52.018;8.552;2023-08-07T07:37:03;3.42;;;1.40;;
74632;SDS011;63139;52.018;8.552;2023-08-07T07:39:32;3.63;;;1.80;;
74632;SDS011;63139;52.018;8.552;2023-08-07T07:42:03;3.33;;;1.70;;
74632;SDS011;63139;52.018;8.552;2023-08-07T07:44:33;3.45;;;1.30;;
74632;SDS011;63139;52.018;8.552;2023-08-07T07:47:01;2.25;;;1.48;;
74632;SDS011;63139;52.018;8.552;2023-08-07T07:49:30;3.53;;;2.00;;
74632;SDS011;63139;52.018;8.552;2023-08-07T07:51:58;2.35;;;1.40;;
74632;SDS011;63139;52.018;8.552;2023-08-07T07:54:27;7.28;;;1.90;;
74632;SDS011;63139;52.018;8.552;2023-08-07T07:56:56;4.88;;;1.77;;
74632;SDS011;63139;52.018;8.552;2023-08-07T07:59:26;5.63;;;1.83;;
74632;SDS011;63139;52.018;8.552;2023-08-07T08:01:54;4.43;;;1.55;;
74632;SDS011;63139;52.018;8.552;2023-08-07T08:04:22;3.65;;;1.38;;
74632;SDS011;63139;52.018;8.552;2023-08-07T08:06:50;3.72;;;1.55;;
74632;SDS011;63139;52.018;8.552;2023-08-07T08:09:18;3.60;;;1.88;;
74632;SDS011;63139;52.018;8.552;2023-08-07T08:11:47;3.03;;;1.40;;
74632;SDS011;63139;52.018;8.552;2023-08-07T08:14:15;2.85;;;1.40;;
74632;SDS011;63139;52.018;8.552;2023-08-07T08:16:44;3.20;;;1.65;;
74632;SDS011;63139;52.018;8.552;2023-08-07T08:19:12;6.40;;;2.25;;
74632;SDS011;63139;52.018;8.552;2023-08-07T08:21:41;6.75;;;2.15;;
74632;SDS011;63139;52.018;8.552;2023-08-07T08:24:10;4.32;;;1.80;;
74632;SDS011;63139;52.018;8.552;2023-08-07T08:26:38;5.63;;;2.00;;
74632;SDS011;63139;52.018;8.552;2023-08-07T08:29:06;5.15;;;1.95;;
74632;SDS011;63139;52.018;8.552;2023-08-07T08:31:35;4.38;;;2.10;;
74632;SDS011;63139;52.018;8.552;2023-08-07T08:34:04;4.63;;;2.05;;
74632;SDS011;63139;52.018;8.552;2023-08-07T08:36:32;5.03;;;2.33;;
74632;SDS011;63139;52.018;8.552;2023-08-07T08:39:00;5.00;;;2.50;;
74632;SDS011;63139;52.018;8.552;2023-08-07T08:41:31;4.05;;;1.85;;
74632;SDS011;63139;52.018;8.552;2023-08-07T08:43:59;4.60;;;1.90;;
74632;SDS011;63139;52.018;8.552;2023-08-07T08:46:29;6.60;;;2.03;;
74632;SDS011;63139;52.018;8.552;2023-08-07T08:48:58;5.88;;;1.90;;
74632;SDS011;63139;52.018;8.552;2023-08-07T08:51:30;3.97;;;2.08;;
74632;SDS011;63139;52.018;8.552;2023-08-07T08:53:59;3.83;;;1.80;;
74632;SDS011;63139;52.018;8.552;2023-08-07T08:56:29;6.10;;;2.38;;
74632;SDS011;63139;52.018;8.552;2023-08-07T08:58:58;5.53;;;2.03;;
74632;SDS011;63139;52.018;8.552;2023-08-07T09:01:26;6.13;;;2.03;;
74632;SDS011;63139;52.018;8.552;2023-08-07T09:03:57;4.80;;;2.00;;
74632;SDS011;63139;52.018;8.552;2023-08-07T09:06:26;7.13;;;2.13;;
74632;SDS011;63139;52.018;8.552;2023-08-07T09:08:58;4.28;;;1.90;;
74632;SDS011;63139;52.018;8.552;2023-08-07T09:11:27;5.47;;;2.28;;
74632;SDS011;63139;52.018;8.552;2023-08-07T09:13:56;3.70;;;1.90;;
74632;SDS011;63139;52.018;8.552;2023-08-07T09:16:26;6.30;;;2.40;;
74632;SDS011;63139;52.018;8.552;2023-08-07T09:18:56;5.60;;;2.20;;
74632;SDS011;63139;52.018;8.552;2023-08-07T09:21:24;4.72;;;1.88;;
74632;SDS011;63139;52.018;8.552;2023-08-07T09:23:53;4.75;;;2.00;;
74632;SDS011;63139;52.018;8.552;2023-08-07T09:26:23;6.43;;;2.55;;
74632;SDS011;63139;52.018;8.552;2023-08-07T09:28:51;6.18;;;2.40;;
74632;SDS011;63139;52.018;8.552;2023-08-07T09:31:20;6.22;;;2.05;;
74632;SDS011;63139;52.018;8.552;2023-08-07T09:33:49;8.88;;;2.38;;
74632;SDS011;63139;52.018;8.552;2023-08-07T09:36:17;6.45;;;2.20;;
74632;SDS011;63139;52.018;8.552;2023-08-07T09:38:49;7.20;;;2.20;;
74632;SDS011;63139;52.018;8.552;2023-08-07T09:41:18;10.00;;;2.10;;
74632;SDS011;63139;52.018;8.552;2023-08-07T09:43:48;6.43;;;1.92;;
74632;SDS011;63139;52.018;8.552;2023-08-07T09:46:16;6.90;;;2.20;;
74632;SDS011;63139;52.018;8.552;2023-08-07T09:48:45;4.13;;;1.90;;
74632;SDS011;63139;52.018;8.552;2023-08-07T09:51:13;5.35;;;1.63;;
74632;SDS011;63139;52.018;8.552;2023-08-07T09:53:41;6.25;;;1.80;;
74632;SDS011;63139;52.018;8.552;2023-08-07T09:56:09;5.47;;;1.73;;
74632;SDS011;63139;52.018;8.552;2023-08-07T09:58:37;6.70;;;2.17;;
74632;SDS011;63139;52.018;8.552;2023-08-07T10:01:07;5.43;;;1.77;;
74632;SDS011;63139;52.018;8.552;2023-08-07T10:03:36;5.10;;;1.75;;
74632;SDS011;63139;52.018;8.552;2023-08-07T10:06:05;5.30;;;1.67;;
74632;SDS011;63139;52.018;8.552;2023-08-07T10:08:34;6.47;;;1.95;;
74632;SDS011;63139;52.018;8.552;2023-08-07T10:11:04;3.97;;;1.67;;
74632;SDS011;63139;52.018;8.552;2023-08-07T10:13:33;6.32;;;2.10;;
74632;SDS011;63139;52.018;8.552;2023-08-07T10:16:06;5.10;;;1.75;;
74632;SDS011;63139;52.018;8.552;2023-08-07T10:18:35;5.57;;;1.70;;
74632;SDS011;63139;52.018;8.552;2023-08-07T10:21:04;3.75;;;1.67;;
74632;SDS011;63139;52.018;8.552;2023-08-07T10:23:34;5.30;;;1.65;;
74632;SDS011;63139;52.018;8.552;2023-08-07T10:26:03;4.15;;;1.85;;
74632;SDS011;63139;52.018;8.552;2023-08-07T10:28:33;6.90;;;2.00;;
74632;SDS011;63139;52.018;8.552;2023-08-07T10:31:06;6.53;;;2.20;;
74632;SDS011;63139;52.018;8.552;2023-08-07T10:33:36;5.47;;;1.75;;
74632;SDS011;63139;52.018;8.552;2023-08-07T10:36:07;3.10;;;1.30;;
74632;SDS011;63139;52.018;8.552;2023-08-07T10:38:37;2.38;;;1.25;;
74632;SDS011;63139;52.018;8.552;2023-08-07T10:41:06;3.25;;;1.60;;
74632;SDS011;63139;52.018;8.552;2023-08-07T10:43:38;2.33;;;1.42;;
74632;SDS011;63139;52.018;8.552;2023-08-07T10:46:10;3.38;;;1.30;;
74632;SDS011;63139;52.018;8.552;2023-08-07T10:48:41;1.52;;;1.23;;
74632;SDS011;63139;52.018;8.552;2023-08-07T10:51:12;2.85;;;1.30;;
74632;SDS011;63139;52.018;8.552;2023-08-07T10:53:42;4.05;;;1.63;;
74632;SDS011;63139;52.018;8.552;2023-08-07T10:56:14;2.72;;;1.40;;
74632;SDS011;63139;52.018;8.552;2023-08-07T10:58:47;5.15;;;1.70;;
74632;SDS011;63139;52.018;8.552;2023-08-07T11:01:19;5.85;;;1.80;;
74632;SDS011;63139;52.018;8.552;2023-08-07T11:03:49;5.57;;;1.95;;
74632;SDS011;63139;52.018;8.552;2023-08-07T11:06:21;5.32;;;1.85;;
74632;SDS011;63139;52.018;8.552;2023-08-07T11:08:50;4.57;;;1.70;;
74632;SDS011;63139;52.018;8.552;2023-08-07T11:11:19;4.68;;;1.80;;
74632;SDS011;63139;52.018;8.552;2023-08-07T11:13:47;3.80;;;1.77;;
74632;SDS011;63139;52.018;8.552;2023-08-07T11:16:15;3.95;;;1.98;;
74632;SDS011;63139;52.018;8.552;2023-08-07T11:18:45;4.95;;;2.13;;
74632;SDS011;63139;52.018;8.552;2023-08-07T11:21:15;6.85;;;2.10;;
74632;SDS011;63139;52.018;8.552;2023-08-07T11:23:43;7.18;;;2.35;;
74632;SDS011;63139;52.018;8.552;2023-08-07T11:26:12;7.43;;;2.30;;
74632;SDS011;63139;52.018;8.552;2023-08-07T11:28:40;6.45;;;2.40;;
74632;SDS011;63139;52.018;8.552;2023-08-07T11:31:08;6.88;;;2.33;;
74632;SDS011;63139;52.018;8.552;2023-08-07T11:33:36;6.20;;;2.33;;
74632;SDS011;63139;52.018;8.552;2023-08-07T11:36:11;9.35;;;2.60;;
74632;SDS011;63139;52.018;8.552;2023-08-07T11:38:39;9.15;;;2.70;;
74632;SDS011;63139;52.018;8.552;2023-08-07T11:41:09;7.85;;;2.50;;
74632;SDS011;63139;52.018;8.552;2023-08-07T11:43:38;6.85;;;2.38;;
74632;SDS011;63139;52.018;8.552;2023-08-07T11:46:07;7.85;;;2.63;;
74632;SDS011;63139;52.018;8.552;2023-08-07T11:48:37;7.93;;;2.13;;
74632;SDS011;63139;52.018;8.552;2023-08-07T11:51:06;6.82;;;2.67;;
74632;SDS011;63139;52.018;8.552;2023-08-07T11:53:37;5.95;;;2.25;;
74632;SDS011;63139;52.018;8.552;2023-08-07T11:56:07;8.82;;;2.35;;
74632;SDS011;63139;52.018;8.552;2023-08-07T11:58:37;7.45;;;2.38;;
74632;SDS011;63139;52.018;8.552;2023-08-07T12:01:09;7.35;;;2.58;;
74632;SDS011;63139;52.018;8.552;2023-08-07T12:03:38;9.43;;;2.53;;
74632;SDS011;63139;52.018;8.552;2023-08-07T12:06:09;17.73;;;2.90;;
74632;SDS011;63139;52.018;8.552;2023-08-07T12:08:39;6.95;;;2.40;;
74632;SDS011;63139;52.018;8.552;2023-08-07T12:11:11;6.35;;;2.38;;
74632;SDS011;63139;52.018;8.552;2023-08-07T12:13:40;10.63;;;2.58;;
74632;SDS011;63139;52.018;8.552;2023-08-07T12:16:09;7.00;;;2.50;;
74632;SDS011;63139;52.018;8.552;2023-08-07T12:18:43;6.95;;;2.40;;
74632;SDS011;63139;52.018;8.552;2023-08-07T12:21:13;7.03;;;2.60;;
74632;SDS011;63139;52.018;8.552;2023-08-07T12:23:43;7.63;;;2.25;;
74632;SDS011;63139;52.018;8.552;2023-08-07T12:26:14;5.38;;;2.33;;
74632;SDS011;63139;52.018;8.552;2023-08-07T12:28:42;6.53;;;2.28;;
74632;SDS011;63139;52.018;8.552;2023-08-07T12:31:11;5.40;;;2.42;;
74632;SDS011;63139;52.018;8.552;2023-08-07T12:33:39;6.43;;;2.33;;
74632;SDS011;63139;52.018;8.552;2023-08-07T12:36:07;6.10;;;3.10;;
74632;SDS011;63139;52.018;8.552;2023-08-07T12:38:39;8.00;;;2.20;;
74632;SDS011;63139;52.018;8.552;2023-08-07T12:41:09;6.72;;;2.35;;
74632;SDS011;63139;52.018;8.552;2023-08-07T12:43:57;5.50;;;2.38;;
74632;SDS011;63139;52.018;8.552;2023-08-07T12:46:25;4.75;;;2.20;;
74632;SDS011;63139;52.018;8.552;2023-08-07T12:48:56;8.07;;;2.15;;
74632;SDS011;63139;52.018;8.552;2023-08-07T12:51:24;4.60;;;2.20;;
74632;SDS011;63139;52.018;8.552;2023-08-07T12:53:52;5.43;;;2.03;;
74632;SDS011;63139;52.018;8.552;2023-08-07T12:56:22;5.15;;;2.60;;
74632;SDS011;63139;52.018;8.552;2023-08-07T12:58:50;9.82;;;2.50;;
74632;SDS011;63139;52.018;8.552;2023-08-07T13:01:18;6.35;;;2.30;;
74632;SDS011;63139;52.018;8.552;2023-08-07T13:03:46;7.40;;;1.98;;
74632;SDS011;63139;52.018;8.552;2023-08-07T13:06:14;7.70;;;1.92;;
74632;SDS011;63139;52.018;8.552;2023-08-07T13:08:42;6.50;;;2.25;;
74632;SDS011;63139;52.018;8.552;2023-08-07T13:11:12;9.00;;;2.50;;
74632;SDS011;63139;52.018;8.552;2023-08-07T13:13:41;4.15;;;1.73;;
74632;SDS011;63139;52.018;8.552;2023-08-07T13:16:09;6.78;;;1.80;;
74632;SDS011;63139;52.018;8.552;2023-08-07T13:18:38;5.32;;;1.90;;
74632;SDS011;63139;52.018;8.552;2023-08-07T13:21:06;6.88;;;1.90;;
74632;SDS011;63139;52.018;8.552;2023-08-07T13:23:34;5.38;;;2.00;;
74632;SDS011;63139;52.018;8.552;2023-08-07T13:26:02;3.58;;;1.90;;
74632;SDS011;63139;52.018;8.552;2023-08-07T13:28:30;4.78;;;1.90;;
74632;SDS011;63139;52.018;8.552;2023-08-07T13:30:59;4.70;;;1.90;;
74632;SDS011;63139;52.018;8.552;2023-08-07T13:33:28;4.63;;;2.03;;
74632;SDS011;63139;52.018;8.552;2023-08-07T13:35:56;6.63;;;2.00;;
74632;SDS011;63139;52.018;8.552;2023-08-07T13:38:24;3.22;;;1.63;;
74632;SDS011;63139;52.018;8.552;2023-08-07T13:40:52;6.43;;;2.28;;
74632;SDS011;63139;52.018;8.552;2023-08-07T13:43:20;5.85;;;2.28;;
74632;SDS011;63139;52.018;8.552;2023-08-07T13:45:48;7.57;;;1.90;;
74632;SDS011;63139;52.018;8.552;2023-08-07T13:48:19;4.18;;;1.90;;
74632;SDS011;63139;52.018;8.552;2023-08-07T13:50:47;5.25;;;3.25;;
74632;SDS011;63139;52.018;8.552;2023-08-07T13:53:15;5.68;;;1.98;;
74632;SDS011;63139;52.018;8.552;2023-08-07T13:55:43;5.18;;;1.98;;
74632;SDS011;63139;52.018;8.552;2023-08-07T13:58:11;5.20;;;2.20;;
74632;SDS011;63139;52.018;8.552;2023-08-07T14:00:42;8.38;;;2.25;;
74632;SDS011;63139;52.018;8.552;2023-08-07T14:03:10;3.00;;;1.90;;
74632;SDS011;63139;52.018;8.552;2023-08-07T14:05:41;7.88;;;2.30;;
74632;SDS011;63139;52.018;8.552;2023-08-07T14:08:09;9.38;;;2.30;;
74632;SDS011;63139;52.018;8.552;2023-08-07T14:10:37;9.95;;;2.20;;
74632;SDS011;63139;52.018;8.552;2023-08-07T14:13:08;6.22;;;1.83;;
74632;SDS011;63139;52.018;8.552;2023-08-07T14:15:38;5.57;;;2.17;;
74632;SDS011;63139;52.018;8.552;2023-08-07T14:18:06;4.88;;;2.13;;
74632;SDS011;63139;52.018;8.552;2023-08-07T14:20:34;4.10;;;2.05;;
74632;SDS011;63139;52.018;8.552;2023-08-07T14:23:18;8.60;;;2.10;;
74632;SDS011;63139;52.018;8.552;2023-08-07T14:25:47;6.97;;;2.10;;
74632;SDS011;63139;52.018;8.552;2023-08-07T14:28:17;6.25;;;2.05;;
74632;SDS011;63139;52.018;8.552;2023-08-07T14:30:45;9.05;;;2.00;;
74632;SDS011;63139;52.018;8.552;2023-08-07T14:33:13;6.65;;;1.70;;
74632;SDS011;63139;52.018;8.552;2023-08-07T14:35:41;6.72;;;2.10;;
74632;SDS011;63139;52.018;8.552;2023-08-07T14:38:09;4.30;;;1.58;;
74632;SDS011;63139;52.018;8.552;2023-08-07T14:40:38;6.05;;;1.90;;
74632;SDS011;63139;52.018;8.552;2023-08-07T14:43:07;5.57;;;1.80;;
74632;SDS011;63139;52.018;8.552;2023-08-07T14:45:36;4.47;;;1.90;;
74632;SDS011;63139;52.018;8.552;2023-08-07T14:48:04;6.32;;;1.70;;
74632;SDS011;63139;52.018;8.552;2023-08-07T14:50:33;6.85;;;1.90;;
74632;SDS011;63139;52.018;8.552;2023-08-07T14:53:01;5.45;;;1.98;;
74632;SDS011;63139;52.018;8.552;2023-08-07T14:55:30;6.78;;;2.08;;
74632;SDS011;63139;52.018;8.552;2023-08-07T14:57:59;3.53;;;2.08;;